Time;durP1;ratioP1;P1;durP2;ratioP2;P2;SDS_P1;SDS_P2;PMS_P1;PMS_P2;Temp;Humidity;BMP_temperature;BMP_pressure;BME280_temperature;BME280_humidity;BME280_pressure;Samples;Min_cycle;Max_cycle;Signal;HPM_P1;HPM_P2
2022/04/27 00:01:43;;;;;;;;;;;;;;;20.46;40.93;102231.03;5073690;28;19920;-84
2022/04/27 00:04:14;;;;;;;;;;;;;;;20.46;40.76;102229.13;5073705;28;20271;-87
2022/04/27 00:06:40;;;;;;;;;;;;;;;20.45;40.67;102230.22;5073710;28;19967;-84
2022/04/27 00:09:06;;;;;;;;;;;;;;;20.45;40.83;102229.41;5056768;28;19966;-82
2022/04/27 00:11:37;;;;;;;;;;;;;;;20.44;40.58;102225.84;5056970;28;19917;-85
2022/04/27 00:14:03;;;;;;;;;;;;;;;20.44;40.62;102230.50;5058197;28;19921;-84
2022/04/27 00:16:28;;;;;;;;;;;;;;;20.43;40.75;102224.16;5073148;28;19921;-84
2022/04/27 00:18:55;;;;;;;;;;;;;;;20.43;40.84;102226.09;5074134;28;19916;-84
2022/04/27 00:21:24;;;;;;;;;;;;;;;20.42;40.83;102221.72;5074260;28;20360;-84
2022/04/27 00:23:50;;;;;;;;;;;;;;;20.42;40.82;102219.78;5073069;28;19916;-84
2022/04/27 00:26:17;;;;;;;;;;;;;;;20.42;40.92;102222.53;5073026;28;19916;-84
2022/04/27 00:28:42;;;;;;;;;;;;;;;20.42;40.62;102222.53;5056650;28;19921;-84
2022/04/27 00:31:08;;;;;;;;;;;;;;;20.41;40.83;102228.28;5075190;28;19966;-84
2022/04/27 00:33:40;;;;;;;;;;;;;;;20.41;40.72;102226.38;5056001;28;20273;-84
2022/04/27 00:36:09;;;;;;;;;;;;;;;20.40;40.59;102224.72;5073444;28;19920;-84
2022/04/27 00:38:44;;;;;;;;;;;;;;;20.40;40.82;102226.66;5074381;28;19917;-85
2022/04/27 00:41:10;;;;;;;;;;;;;;;20.40;40.78;102232.13;5074500;28;20267;-84
2022/04/27 00:43:41;;;;;;;;;;;;;;;20.39;40.74;102233.25;5072009;28;19917;-84
2022/04/27 00:46:12;;;;;;;;;;;;;;;20.38;40.55;102234.31;5055891;28;19925;-84
2022/04/27 00:48:41;;;;;;;;;;;;;;;20.37;40.69;102233.50;5073139;28;19920;-84
2022/04/27 00:51:08;;;;;;;;;;;;;;;20.37;40.79;102236.25;5072739;28;19916;-84
2022/04/27 00:53:41;;;;;;;;;;;;;;;20.37;40.85;102229.94;5073879;28;19952;-84
2022/04/27 00:56:07;;;;;;;;;;;;;;;20.36;40.58;102231.03;5056689;28;20019;-84
2022/04/27 00:58:32;;;;;;;;;;;;;;;20.35;40.85;102232.94;5072860;28;20025;-84
2022/04/27 01:00:59;;;;;;;;;;;;;;;20.35;40.89;102229.38;5072635;28;19931;-84
2022/04/27 01:03:25;;;;;;;;;;;;;;;20.35;40.54;102234.88;5071976;28;19917;-84
2022/04/27 01:05:51;;;;;;;;;;;;;;;20.35;40.55;102226.66;5072630;28;20003;-85
2022/04/27 01:08:17;;;;;;;;;;;;;;;20.34;40.81;102233.25;5072784;28;20367;-88
2022/04/27 01:10:44;;;;;;;;;;;;;;;20.32;40.73;102234.31;5075191;28;19916;-84
2022/04/27 01:13:11;;;;;;;;;;;;;;;20.32;40.77;102237.06;5076617;28;19920;-84
2022/04/27 01:15:37;;;;;;;;;;;;;;;20.32;40.80;102231.56;5077831;28;20356;-85
2022/04/27 01:18:03;;;;;;;;;;;;;;;20.31;40.70;102240.09;5076275;28;19951;-84
2022/04/27 01:20:32;;;;;;;;;;;;;;;20.31;40.82;102246.41;5076039;28;20352;-84
2022/04/27 01:22:59;;;;;;;;;;;;;;;20.30;40.39;102236.50;5076492;28;19916;-84
2022/04/27 01:25:25;;;;;;;;;;;;;;;20.30;40.69;102239.25;5059564;28;20007;-84
2022/04/27 01:27:51;;;;;;;;;;;;;;;20.30;40.75;102241.19;5075814;28;20368;-84
2022/04/27 01:30:16;;;;;;;;;;;;;;;20.30;40.54;102243.91;5076596;28;19924;-86
2022/04/27 01:32:41;;;;;;;;;;;;;;;20.29;40.65;102247.78;5075354;28;19923;-84
2022/04/27 01:35:07;;;;;;;;;;;;;;;20.29;40.72;102250.50;5076334;28;20014;-84
2022/04/27 01:40:18;;;;;;;;;;;;;;;20.27;40.73;102242.53;5076753;28;19927;-87
2022/04/27 01:42:44;;;;;;;;;;;;;;;20.27;40.57;102244.47;5060305;28;19973;-85
2022/04/27 01:45:11;;;;;;;;;;;;;;;20.25;40.70;102242.00;5075984;28;19921;-84
2022/04/27 01:47:37;;;;;;;;;;;;;;;20.25;40.59;102243.91;5059471;28;19924;-85
2022/04/27 01:50:03;;;;;;;;;;;;;;;20.25;40.66;102244.72;5077243;28;19936;-84
2022/04/27 01:55:12;;;;;;;;;;;;;;;20.23;40.77;102249.66;5076844;28;19928;-85
2022/04/27 01:57:38;;;;;;;;;;;;;;;20.23;40.79;102252.41;5076266;28;20255;-85
2022/04/27 02:00:03;;;;;;;;;;;;;;;20.22;40.80;102248.03;5059393;28;20274;-85
2022/04/27 02:02:29;;;;;;;;;;;;;;;20.22;40.71;102250.75;5074394;28;19917;-85
2022/04/27 02:04:54;;;;;;;;;;;;;;;20.22;40.69;102253.50;5075722;28;19917;-85
2022/04/27 02:07:20;;;;;;;;;;;;;;;20.21;40.61;102251.88;5058950;28;20026;-89
2022/04/27 02:09:45;;;;;;;;;;;;;;;20.21;40.73;102256.50;5075942;28;19974;-85
2022/04/27 02:12:10;;;;;;;;;;;;;;;20.20;40.57;102263.94;5075205;28;19971;-85
2022/04/27 02:14:36;;;;;;;;;;;;;;;20.20;40.70;102258.44;5075268;28;19920;-85
2022/04/27 02:17:01;;;;;;;;;;;;;;;20.20;40.54;102268.59;5076785;28;20276;-85
2022/04/27 02:19:27;;;;;;;;;;;;;;;20.17;40.68;102261.72;5074530;28;20323;-85
2022/04/27 02:21:52;;;;;;;;;;;;;;;20.18;40.76;102265.28;5057848;28;19921;-85
2022/04/27 02:24:19;;;;;;;;;;;;;;;20.17;40.65;102264.47;5058923;28;19928;-85
2022/04/27 02:26:45;;;;;;;;;;;;;;;20.17;40.70;102274.63;5058713;28;19966;-85
2022/04/27 02:29:10;;;;;;;;;;;;;;;20.16;40.61;102268.31;5059379;28;19927;-85
2022/04/27 02:31:36;;;;;;;;;;;;;;;20.16;40.56;102272.97;5075109;28;19917;-85
2022/04/27 02:34:03;;;;;;;;;;;;;;;20.16;40.81;102279.28;5074906;28;20381;-85
2022/04/27 02:36:28;;;;;;;;;;;;;;;20.14;40.51;102275.19;5076352;28;19942;-86
2022/04/27 02:38:53;;;;;;;;;;;;;;;20.13;40.67;102273.50;5074369;28;19923;-86
2022/04/27 02:41:19;;;;;;;;;;;;;;;20.12;40.65;102283.66;5058310;28;20366;-85
2022/04/27 02:43:50;;;;;;;;;;;;;;;20.13;40.57;102281.75;5074817;28;19916;-85
2022/04/27 02:46:15;;;;;;;;;;;;;;;20.12;40.47;102288.34;5075247;28;19916;-85
2022/04/27 02:51:48;;;;;;;;;;;;;;;20.10;40.75;102283.09;5075601;28;19966;-85
2022/04/27 02:54:11;;;;;;;;;;;;;;;20.09;40.45;102285.03;5076176;28;19966;-85
2022/04/27 02:56:36;;;;;;;;;;;;;;;20.08;40.72;102286.13;5075053;28;20308;-85
2022/04/27 02:59:02;;;;;;;;;;;;;;;20.08;40.41;102288.03;5076069;28;19960;-85
2022/04/27 03:01:29;;;;;;;;;;;;;;;20.06;40.43;102282.81;5057801;28;19963;-85
2022/04/27 03:03:55;;;;;;;;;;;;;;;20.07;40.75;102289.13;5075799;28;19923;-85
2022/04/27 03:06:20;;;;;;;;;;;;;;;20.06;40.66;102280.09;5074543;28;20285;-86
2022/04/27 03:08:47;;;;;;;;;;;;;;;20.06;40.80;102282.00;5074991;28;19960;-85
2022/04/27 03:11:13;;;;;;;;;;;;;;;20.05;40.56;102275.69;5057936;28;19924;-85
2022/04/27 03:13:38;;;;;;;;;;;;;;;20.04;40.74;102276.78;5074197;28;19924;-84
2022/04/27 03:16:04;;;;;;;;;;;;;;;20.04;40.68;102278.72;5074096;28;19924;-85
2022/04/27 03:18:30;;;;;;;;;;;;;;;20.04;40.42;102284.19;5075007;28;20356;-86
2022/04/27 03:20:55;;;;;;;;;;;;;;;20.03;40.46;102277.03;5057599;28;19927;-85
2022/04/27 03:23:20;;;;;;;;;;;;;;;20.02;40.49;102273.47;5059043;28;19920;-85
2022/04/27 03:25:46;;;;;;;;;;;;;;;20.02;40.46;102278.16;5076646;28;19920;-85
2022/04/27 03:28:12;;;;;;;;;;;;;;;20.02;40.54;102287.19;5057893;28;20355;-85
2022/04/27 03:30:37;;;;;;;;;;;;;;;20.02;40.44;102281.72;5074368;28;19916;-86
2022/04/27 03:33:03;;;;;;;;;;;;;;;20.01;40.52;102284.75;5073548;28;19917;-85
2022/04/27 03:35:28;;;;;;;;;;;;;;;20.00;40.59;102283.88;5073917;28;19924;-87
2022/04/27 03:37:54;;;;;;;;;;;;;;;19.99;40.55;102285.00;5074218;28;19920;-86
2022/04/27 03:40:21;;;;;;;;;;;;;;;19.99;40.60;102287.72;5074228;28;20364;-86
2022/04/27 03:42:50;;;;;;;;;;;;;;;19.99;40.72;102292.41;5073813;28;19960;-85
2022/04/27 03:45:15;;;;;;;;;;;;;;;19.98;40.51;102291.59;5073191;28;19916;-86
2022/04/27 03:47:41;;;;;;;;;;;;;;;19.98;40.64;102305.31;5073936;28;20245;-85
2022/04/27 03:50:06;;;;;;;;;;;;;;;19.97;40.55;102298.16;5057039;28;20288;-85
2022/04/27 03:52:32;;;;;;;;;;;;;;;19.97;40.65;102297.31;5073548;28;19916;-86
2022/04/27 03:55:01;;;;;;;;;;;;;;;19.96;40.45;102307.47;5057382;28;20014;-86
2022/04/27 03:57:29;;;;;;;;;;;;;;;19.95;40.56;102307.72;5056935;28;19927;-85
2022/04/27 03:59:54;;;;;;;;;;;;;;;19.96;40.43;102306.63;5061107;28;20323;-87
2022/04/27 04:02:20;;;;;;;;;;;;;;;19.95;40.43;102305.00;5090025;28;19917;-87
2022/04/27 04:04:45;;;;;;;;;;;;;;;19.95;40.66;102307.72;5091574;28;19961;-86
2022/04/27 04:07:12;;;;;;;;;;;;;;;19.94;40.63;102309.66;5074513;28;19976;-87
2022/04/27 04:09:38;;;;;;;;;;;;;;;19.93;40.56;102313.47;5058697;28;19920;-86
2022/04/27 04:12:03;;;;;;;;;;;;;;;19.93;40.62;102313.47;5073780;28;19928;-86
2022/04/27 04:14:29;;;;;;;;;;;;;;;19.92;40.60;102311.84;5073870;28;19920;-85
2022/04/27 04:16:54;;;;;;;;;;;;;;;19.93;40.50;102318.13;5073508;28;19920;-86
2022/04/27 04:19:19;;;;;;;;;;;;;;;19.92;40.36;102317.31;5057589;28;19921;-85
2022/04/27 04:21:45;;;;;;;;;;;;;;;19.91;40.49;102315.69;5073267;28;19916;-85
2022/04/27 04:24:10;;;;;;;;;;;;;;;19.91;40.54;102310.19;5057225;28;19920;-85
2022/04/27 04:29:19;;;;;;;;;;;;;;;19.91;40.63;102323.06;5074700;28;19932;-86
2022/04/27 04:31:45;;;;;;;;;;;;;;;19.90;40.43;102327.72;5056299;28;19924;-86
2022/04/27 04:34:10;;;;;;;;;;;;;;;19.89;40.39;102335.13;5073055;28;20345;-85
2022/04/27 04:36:35;;;;;;;;;;;;;;;19.90;40.44;102333.22;5056221;28;19927;-85
2022/04/27 04:39:00;;;;;;;;;;;;;;;19.89;40.42;102331.56;5056531;28;20024;-85
2022/04/27 04:41:26;;;;;;;;;;;;;;;19.89;40.45;102337.06;5072962;28;19916;-85
2022/04/27 04:43:51;;;;;;;;;;;;;;;19.90;40.62;102344.19;5072680;28;19919;-85
2022/04/27 04:46:16;;;;;;;;;;;;;;;19.89;40.43;102340.63;5055504;28;19921;-85
2022/04/27 04:48:42;;;;;;;;;;;;;;;19.89;40.27;102350.78;5072887;28;20336;-85
2022/04/27 04:51:07;;;;;;;;;;;;;;;19.87;40.51;102345.53;5056188;28;19920;-84
2022/04/27 04:53:33;;;;;;;;;;;;;;;19.88;40.32;102349.09;5072830;28;19923;-86
2022/04/27 04:55:58;;;;;;;;;;;;;;;19.87;40.34;102345.53;5055759;28;20058;-85
2022/04/27 04:58:23;;;;;;;;;;;;;;;19.87;40.32;102347.47;5072595;28;19927;-84
2022/04/27 05:00:49;;;;;;;;;;;;;;;19.87;40.58;102352.94;5072322;28;20018;-84
2022/04/27 05:03:14;;;;;;;;;;;;;;;19.85;40.48;102355.13;5056074;28;19986;-85
2022/04/27 05:05:40;;;;;;;;;;;;;;;19.86;40.47;102359.53;5072570;28;20399;-85
2022/04/27 05:08:06;;;;;;;;;;;;;;;19.84;40.33;102357.06;5056429;28;20015;-85
2022/04/27 05:10:31;;;;;;;;;;;;;;;19.84;40.56;102356.22;5073456;28;19917;-84
2022/04/27 05:12:57;;;;;;;;;;;;;;;19.84;40.53;102364.47;5072677;28;19923;-84
2022/04/27 05:15:22;;;;;;;;;;;;;;;19.83;40.38;102371.88;5073340;28;19916;-85
2022/04/27 05:17:50;;;;;;;;;;;;;;;19.83;40.42;102371.00;5072557;28;19920;-84
2022/04/27 05:20:15;;;;;;;;;;;;;;;19.83;40.55;102365.53;5072642;28;19916;-84
2022/04/27 05:22:41;;;;;;;;;;;;;;;19.82;40.31;102378.41;5055783;28;20015;-84
2022/04/27 05:25:07;;;;;;;;;;;;;;;19.83;40.56;102376.50;5055739;28;19959;-84
2022/04/27 05:27:32;;;;;;;;;;;;;;;19.81;40.36;102375.97;5071326;28;19921;-85
2022/04/27 05:32:43;;;;;;;;;;;;;;;19.80;40.48;102388.81;5073014;28;20337;-78
2022/04/27 05:35:09;;;;;;;;;;;;;;;19.81;40.34;102387.75;5074646;28;19928;-85
2022/04/27 05:37:34;;;;;;;;;;;;;;;19.81;40.28;102395.16;5072681;28;20284;-84
2022/04/27 05:39:59;;;;;;;;;;;;;;;19.81;40.38;102397.91;5072756;28;20007;-86
2022/04/27 05:42:24;;;;;;;;;;;;;;;19.80;40.35;102402.53;5072540;28;19964;-88
2022/04/27 05:44:50;;;;;;;;;;;;;;;19.80;40.33;102401.72;5073729;28;19917;-89
2022/04/27 05:47:15;;;;;;;;;;;;;;;19.81;40.38;102403.38;5073963;28;19916;-86
2022/04/27 05:49:41;;;;;;;;;;;;;;;19.82;40.60;102400.34;5076070;28;19974;-90
2022/04/27 05:52:06;;;;;;;;;;;;;;;19.82;40.44;102407.75;5057330;28;19927;-85
2022/04/27 05:54:31;;;;;;;;;;;;;;;19.83;40.36;102412.16;5072042;28;20368;-85
2022/04/27 05:56:57;;;;;;;;;;;;;;;19.83;40.55;102407.50;5075198;28;20011;-85
2022/04/27 05:59:22;;;;;;;;;;;;;;;19.84;40.55;102416.56;5093507;28;20268;-85
2022/04/27 06:01:47;;;;;;;;;;;;;;;19.85;40.65;102409.97;5077011;28;19928;-85
2022/04/27 06:04:13;;;;;;;;;;;;;;;19.85;40.78;102415.44;5076110;28;19921;-87
2022/04/27 06:06:38;;;;;;;;;;;;;;;19.85;40.78;102415.44;5059990;28;19931;-86
2022/04/27 06:09:04;;;;;;;;;;;;;;;19.85;40.72;102410.78;5076016;28;19927;-84
2022/04/27 06:11:30;;;;;;;;;;;;;;;19.87;40.72;102424.25;5059491;28;19931;-81
2022/04/27 06:14:07;;;;;;;;;;;;;;;19.88;40.80;102423.16;5059666;28;19921;-88
2022/04/27 06:16:34;;;;;;;;;;;;;;;19.88;40.84;102429.47;5078392;28;19916;-84
2022/04/27 06:19:00;;;;;;;;;;;;;;;19.90;41.23;102418.22;5076478;28;20391;-84
2022/04/27 06:21:30;;;;;;;;;;;;;;;19.91;41.01;102428.13;5058731;28;20019;-83
2022/04/27 06:23:56;;;;;;;;;;;;;;;19.92;41.26;102426.19;5075971;28;19927;-83
2022/04/27 06:26:21;;;;;;;;;;;;;;;19.92;41.37;102427.03;5058668;28;19920;-82
2022/04/27 06:28:47;;;;;;;;;;;;;;;19.92;41.30;102428.94;5075362;28;20273;-84
2022/04/27 06:31:12;;;;;;;;;;;;;;;19.92;41.27;102437.19;5074862;28;19920;-83
2022/04/27 06:33:37;;;;;;;;;;;;;;;19.92;41.16;102439.91;5074913;28;19925;-82
2022/04/27 06:36:03;;;;;;;;;;;;;;;19.91;41.41;102444.59;5075028;28;19968;-80
2022/04/27 06:38:28;;;;;;;;;;;;;;;19.91;41.49;102441.00;5076648;28;19999;-80
2022/04/27 06:40:53;;;;;;;;;;;;;;;19.92;41.22;102445.41;5075358;28;19921;-83
2022/04/27 06:43:19;;;;;;;;;;;;;;;19.92;41.33;102442.66;5058301;28;20364;-81
2022/04/27 06:45:47;;;;;;;;;;;;;;;19.94;41.45;102445.97;5058220;28;19920;-86
2022/04/27 06:48:12;;;;;;;;;;;;;;;19.95;41.41;102444.88;5075105;28;19965;-82
2022/04/27 06:50:38;;;;;;;;;;;;;;;19.94;41.19;102451.44;5075723;28;19921;-81
2022/04/27 06:53:04;;;;;;;;;;;;;;;19.94;41.46;102446.78;5075183;28;20471;-89
2022/04/27 06:55:30;;;;;;;;;;;;;;;19.93;41.22;102450.59;5076940;28;19978;-88
2022/04/27 06:57:55;;;;;;;;;;;;;;;19.94;41.42;102456.94;5075154;28;19921;-84
2022/04/27 07:00:20;;;;;;;;;;;;;;;19.94;41.49;102456.94;5058733;28;19921;-81
2022/04/27 07:02:46;;;;;;;;;;;;;;;19.95;41.32;102456.66;5074486;28;20357;-82
2022/04/27 07:05:20;;;;;;;;;;;;;;;19.94;41.23;102460.50;5058364;28;19927;-80
2022/04/27 07:07:46;;;;;;;;;;;;;;;19.96;41.41;102460.22;5073959;28;19942;-81
2022/04/27 07:10:12;;;;;;;;;;;;;;;19.95;41.56;102464.06;5074433;28;19916;-80
2022/04/27 07:12:38;;;;;;;;;;;;;;;19.95;41.27;102459.41;5074322;28;19917;-81
2022/04/27 07:15:03;;;;;;;;;;;;;;;19.96;41.53;102468.44;5074296;28;20027;-84
2022/04/27 07:17:28;;;;;;;;;;;;;;;19.95;41.27;102470.38;5074302;28;19960;-85
2022/04/27 07:19:54;;;;;;;;;;;;;;;19.96;41.37;102468.44;5074357;28;19964;-84
2022/04/27 07:22:19;;;;;;;;;;;;;;;19.96;41.54;102472.03;5057807;28;20268;-85
2022/04/27 07:24:44;;;;;;;;;;;;;;;19.96;41.54;102479.41;5074829;28;20015;-84
2022/04/27 07:27:10;;;;;;;;;;;;;;;19.95;41.49;102480.53;5074522;28;19927;-84
2022/04/27 07:29:35;;;;;;;;;;;;;;;19.95;41.25;102480.53;5057104;28;20287;-84
2022/04/27 07:32:00;;;;;;;;;;;;;;;19.95;41.32;102475.84;5075133;28;19917;-84
2022/04/27 07:34:26;;;;;;;;;;;;;;;19.95;41.43;102477.78;5073908;28;19932;-84
2022/04/27 07:36:51;;;;;;;;;;;;;;;19.95;41.42;102475.84;5057221;28;19935;-84
2022/04/27 07:39:16;;;;;;;;;;;;;;;19.96;41.47;102483.00;5057256;28;19964;-84
2022/04/27 07:41:45;;;;;;;;;;;;;;;19.97;41.40;102483.84;5074844;28;19917;-83
2022/04/27 07:44:10;;;;;;;;;;;;;;;19.96;41.35;102485.75;5073583;28;19920;-84
2022/04/27 07:46:35;;;;;;;;;;;;;;;19.97;41.32;102475.59;5075235;28;20287;-83
2022/04/27 07:49:00;;;;;;;;;;;;;;;19.95;41.32;102489.56;5075248;28;19927;-84
2022/04/27 07:51:26;;;;;;;;;;;;;;;19.96;41.41;102483.00;5074010;28;19960;-84
2022/04/27 07:53:51;;;;;;;;;;;;;;;19.97;41.38;102489.31;5074389;28;20292;-84
2022/04/27 07:56:16;;;;;;;;;;;;;;;19.96;41.26;102493.97;5074829;28;19985;-84
2022/04/27 07:58:42;;;;;;;;;;;;;;;19.97;41.37;102492.88;5073620;28;19928;-84
2022/04/27 08:01:07;;;;;;;;;;;;;;;19.96;41.38;102490.38;5072985;28;19933;-84
2022/04/27 08:03:32;;;;;;;;;;;;;;;19.97;41.08;102495.63;5073728;28;19936;-85
2022/04/27 08:05:57;;;;;;;;;;;;;;;19.97;41.42;102489.31;5073475;28;19920;-82
2022/04/27 08:08:23;;;;;;;;;;;;;;;19.97;41.09;102492.06;5074301;28;20412;-82
2022/04/27 08:10:48;;;;;;;;;;;;;;;19.97;41.17;102503.03;5074487;28;20007;-82
2022/04/27 08:13:15;;;;;;;;;;;;;;;19.96;41.15;102499.47;5056687;28;20015;-82
2022/04/27 08:15:40;;;;;;;;;;;;;;;19.96;41.18;102502.22;5074425;28;20371;-82
2022/04/27 08:18:09;;;;;;;;;;;;;;;19.97;41.01;102506.59;5074083;28;19916;-82
2022/04/27 08:23:22;;;;;;;;;;;;;;;19.98;41.07;102521.13;5075132;28;20284;-82
2022/04/27 08:25:48;;;;;;;;;;;;;;;19.98;41.25;102512.91;5074059;28;19916;-82
2022/04/27 08:28:13;;;;;;;;;;;;;;;19.97;41.50;102511.25;5073009;28;19917;-82
2022/04/27 08:30:40;;;;;;;;;;;;;;;19.98;40.94;102521.97;5072999;28;19927;-82
2022/04/27 08:33:06;;;;;;;;;;;;;;;19.99;41.06;102520.06;5073518;28;20327;-82
2022/04/27 08:35:31;;;;;;;;;;;;;;;19.99;41.11;102523.63;5073929;28;19924;-82
2022/04/27 08:37:57;;;;;;;;;;;;;;;19.99;41.06;102517.31;5072804;28;20014;-82
2022/04/27 08:40:24;;;;;;;;;;;;;;;20.00;41.17;102510.72;5074261;28;19940;-82
2022/04/27 08:42:49;;;;;;;;;;;;;;;20.01;41.15;102509.66;5056849;28;19929;-82
2022/04/27 08:45:15;;;;;;;;;;;;;;;20.01;41.22;102513.22;5072687;28;20330;-83
2022/04/27 08:47:40;;;;;;;;;;;;;;;20.02;41.17;102520.34;5073102;28;19916;-82
2022/04/27 08:50:13;;;;;;;;;;;;;;;20.03;41.24;102522.00;5072714;28;20378;-83
2022/04/27 08:52:39;;;;;;;;;;;;;;;20.04;41.08;102517.34;5075452;28;19927;-83
2022/04/27 08:55:05;;;;;;;;;;;;;;;20.05;41.24;102519.00;5077923;28;19916;-83
2022/04/27 08:57:30;;;;;;;;;;;;;;;20.05;41.03;102527.22;5076238;28;19923;-84
2022/04/27 08:59:56;;;;;;;;;;;;;;;20.06;41.20;102526.97;5077712;28;19917;-83
2022/04/27 09:02:25;;;;;;;;;;;;;;;20.06;41.22;102526.97;5060970;28;20365;-82
2022/04/27 09:05:07;;;;;;;;;;;;;;;20.08;41.02;102521.19;5077252;28;19920;-84
2022/04/27 09:07:51;;;;;;;;;;;;;;;20.08;41.23;102518.47;5074091;28;20427;-84
2022/04/27 09:10:21;;;;;;;;;;;;;;;20.08;40.73;102522.06;5074451;28;19917;-84
2022/04/27 09:12:48;;;;;;;;;;;;;;;20.09;40.87;102525.63;5074889;28;20379;-83
2022/04/27 09:15:14;;;;;;;;;;;;;;;20.10;40.76;102528.06;5076347;28;19916;-83
2022/04/27 09:23:19;;;;;;;;;;;;;;;20.11;41.20;102520.69;5074715;28;20355;-83
2022/04/27 09:25:45;;;;;;;;;;;;;;;20.10;41.15;102517.09;5072949;28;20315;-83
2022/04/27 09:28:10;;;;;;;;;;;;;;;20.13;41.04;102525.91;5073826;28;19920;-83
2022/04/27 09:30:35;;;;;;;;;;;;;;;20.13;41.19;102517.66;5056507;28;19920;-84
2022/04/27 09:33:01;;;;;;;;;;;;;;;20.13;40.93;102518.50;5076494;28;19920;-82
2022/04/27 09:35:29;;;;;;;;;;;;;;;20.14;40.91;102519.34;5060168;28;19944;-83
2022/04/27 09:37:55;;;;;;;;;;;;;;;20.14;40.91;102528.41;5077502;28;20258;-83
2022/04/27 09:40:20;;;;;;;;;;;;;;;20.13;41.17;102523.97;5076804;28;20070;-83
2022/04/27 09:42:46;;;;;;;;;;;;;;;20.13;40.79;102526.72;5060344;28;19959;-83
2022/04/27 09:45:18;;;;;;;;;;;;;;;20.14;41.16;102525.66;5076542;28;19927;-83
2022/04/27 09:47:45;;;;;;;;;;;;;;;20.16;41.01;102525.38;5076243;28;19917;-83
2022/04/27 09:50:11;;;;;;;;;;;;;;;20.16;41.02;102536.34;5075796;28;19920;-83
2022/04/27 09:52:36;;;;;;;;;;;;;;;20.17;40.96;102532.53;5076571;28;20280;-83
2022/04/27 09:55:02;;;;;;;;;;;;;;;20.17;41.01;102533.34;5076257;28;20254;-83
2022/04/27 09:57:29;;;;;;;;;;;;;;;20.18;41.11;102536.91;5075398;28;20343;-83
2022/04/27 09:59:55;;;;;;;;;;;;;;;20.18;41.04;102525.94;5075751;28;19962;-83
2022/04/27 10:02:27;;;;;;;;;;;;;;;20.20;41.07;102535.56;5076136;28;19924;-83
2022/04/27 10:04:53;;;;;;;;;;;;;;;20.20;41.07;102530.06;5075956;28;20256;-83
2022/04/27 10:07:20;;;;;;;;;;;;;;;20.22;40.93;102527.06;5059117;28;20334;-83
2022/04/27 10:09:46;;;;;;;;;;;;;;;20.23;40.85;102525.97;5075946;28;19917;-83
2022/04/27 10:12:14;;;;;;;;;;;;;;;20.23;40.88;102520.47;5077362;28;20265;-83
2022/04/27 10:14:39;;;;;;;;;;;;;;;20.24;40.97;102522.16;5077209;28;19921;-83
2022/04/27 10:17:04;;;;;;;;;;;;;;;20.24;41.06;102525.72;5076780;28;19943;-83
2022/04/27 10:19:30;;;;;;;;;;;;;;;20.24;41.03;102509.25;5076502;28;20365;-83
2022/04/27 10:21:59;;;;;;;;;;;;;;;20.26;41.00;102512.56;5075336;28;19920;-84
2022/04/27 10:24:33;;;;;;;;;;;;;;;20.27;40.65;102513.38;5059182;28;19920;-84
2022/04/27 10:27:14;;;;;;;;;;;;;;;20.26;40.72;102509.81;5077238;28;19916;-84
2022/04/27 10:29:40;;;;;;;;;;;;;;;20.27;40.96;102514.19;5058646;28;19924;-83
2022/04/27 10:32:05;;;;;;;;;;;;;;;20.27;41.02;102505.97;5075189;28;19967;-83
2022/04/27 10:34:31;;;;;;;;;;;;;;;20.27;40.85;102497.75;5074847;28;20288;-84
2022/04/27 10:36:58;;;;;;;;;;;;;;;20.28;41.01;102507.63;5076643;28;19920;-84
2022/04/27 10:39:30;;;;;;;;;;;;;;;20.30;40.88;102512.84;5058378;28;19928;-83
2022/04/27 10:42:04;;;;;;;;;;;;;;;20.30;41.20;102499.94;5075720;28;19924;-84
2022/04/27 10:44:48;;;;;;;;;;;;;;;20.31;40.97;102500.78;5076750;28;19916;-83
2022/04/27 10:47:13;;;;;;;;;;;;;;;20.31;41.00;102498.06;5074913;28;19917;-84
2022/04/27 10:49:39;;;;;;;;;;;;;;;20.32;40.92;102503.25;5076214;28;19916;-84
2022/04/27 10:52:05;;;;;;;;;;;;;;;20.34;40.72;102502.19;5058571;28;20344;-83
2022/04/27 10:54:31;;;;;;;;;;;;;;;20.34;40.74;102505.75;5074825;28;19948;-84
2022/04/27 10:57:15;;;;;;;;;;;;;;;20.37;40.78;102501.66;5074689;28;19974;-84
2022/04/27 10:59:44;;;;;;;;;;;;;;;20.36;40.87;102502.72;5074482;28;19921;-84
2022/04/27 11:02:28;;;;;;;;;;;;;;;20.37;40.80;102509.88;5074685;28;19921;-84
2022/04/27 11:04:54;;;;;;;;;;;;;;;20.38;40.88;102506.03;5074519;28;20277;-83
2022/04/27 11:07:23;;;;;;;;;;;;;;;20.37;40.74;102507.13;5074624;28;20439;-83
2022/04/27 11:09:57;;;;;;;;;;;;;;;20.38;41.00;102509.59;5075876;28;19962;-83
2022/04/27 11:12:24;;;;;;;;;;;;;;;20.38;41.07;102504.09;5075665;28;20352;-83
2022/04/27 11:14:57;;;;;;;;;;;;;;;20.39;40.96;102504.97;5074827;28;19917;-84
2022/04/27 11:17:28;;;;;;;;;;;;;;;20.39;40.97;102508.53;5074937;28;19924;-84
2022/04/27 11:19:53;;;;;;;;;;;;;;;20.40;40.72;102498.34;5075551;28;20330;-83
2022/04/27 11:22:19;;;;;;;;;;;;;;;20.41;40.97;102497.25;5057567;28;20414;-84
2022/04/27 11:24:47;;;;;;;;;;;;;;;20.41;40.65;102498.09;5074681;28;19921;-84
2022/04/27 11:27:12;;;;;;;;;;;;;;;20.42;40.85;102496.19;5074407;28;19916;-83
2022/04/27 11:29:37;;;;;;;;;;;;;;;20.42;40.98;102493.44;5074370;28;19923;-84
2022/04/27 11:32:07;;;;;;;;;;;;;;;20.42;40.85;102496.19;5073677;28;19927;-84
2022/04/27 11:34:33;;;;;;;;;;;;;;;20.43;40.76;102500.56;5057509;28;19930;-84
2022/04/27 11:37:11;;;;;;;;;;;;;;;20.43;40.69;102497.81;5057516;28;19921;-84
2022/04/27 11:39:37;;;;;;;;;;;;;;;20.44;40.94;102496.75;5074248;28;19916;-83
2022/04/27 11:42:02;;;;;;;;;;;;;;;20.45;40.90;102506.63;5074068;28;20369;-84
2022/04/27 11:44:29;;;;;;;;;;;;;;;20.44;40.87;102503.06;5073748;28;20253;-84
2022/04/27 11:46:55;;;;;;;;;;;;;;;20.46;40.97;102500.03;5075041;28;19921;-83
2022/04/27 11:49:21;;;;;;;;;;;;;;;20.46;40.70;102491.78;5057036;28;20334;-84
2022/04/27 11:51:47;;;;;;;;;;;;;;;20.47;40.93;102497.03;5073714;28;20360;-83
2022/04/27 11:54:29;;;;;;;;;;;;;;;20.48;40.62;102492.34;5074758;28;19916;-84
2022/04/27 11:57:00;;;;;;;;;;;;;;;20.48;40.76;102484.94;5074692;28;20307;-84
2022/04/27 11:59:25;;;;;;;;;;;;;;;20.49;40.67;102491.28;5075010;28;19917;-84
2022/04/27 12:01:51;;;;;;;;;;;;;;;20.49;40.74;102499.50;5073199;28;19923;-84
2022/04/27 12:04:17;;;;;;;;;;;;;;;20.50;40.77;102501.16;5074071;28;19974;-84
2022/04/27 12:06:44;;;;;;;;;;;;;;;20.49;40.74;102500.34;5083589;28;20322;-84
2022/04/27 12:09:14;;;;;;;;;;;;;;;20.50;40.93;102501.16;5074664;28;19921;-84
2022/04/27 12:11:41;;;;;;;;;;;;;;;20.52;40.97;102507.22;5075331;28;19922;-84
2022/04/27 12:14:07;;;;;;;;;;;;;;;20.51;40.99;102505.53;5075128;28;19955;-83
2022/04/27 12:16:32;;;;;;;;;;;;;;;20.51;40.88;102502.78;5074231;28;19916;-83
2022/04/27 12:18:59;;;;;;;;;;;;;;;20.52;40.83;102498.97;5073637;28;20395;-83
2022/04/27 12:21:24;;;;;;;;;;;;;;;20.52;40.78;102497.06;5073948;28;19921;-83
2022/04/27 12:23:50;;;;;;;;;;;;;;;20.52;40.99;102498.97;5073376;28;19974;-83
2022/04/27 12:26:16;;;;;;;;;;;;;;;20.53;40.96;102497.88;5072629;28;20348;-83
2022/04/27 12:28:49;;;;;;;;;;;;;;;20.53;40.75;102495.94;5073613;28;19927;-83
2022/04/27 12:31:16;;;;;;;;;;;;;;;20.52;40.92;102488.81;5073259;28;19916;-83
2022/04/27 12:33:48;;;;;;;;;;;;;;;20.53;40.96;102487.72;5072675;28;19927;-83
2022/04/27 12:39:03;;;;;;;;;;;;;;;20.55;40.81;102489.41;5074748;28;19970;-83
2022/04/27 12:41:32;;;;;;;;;;;;;;;20.55;40.97;102482.00;5072877;28;20387;-83
2022/04/27 12:44:05;;;;;;;;;;;;;;;20.56;40.92;102485.56;5072736;28;20246;-83
2022/04/27 12:46:30;;;;;;;;;;;;;;;20.55;40.91;102476.50;5055708;28;19930;-83
2022/04/27 12:48:59;;;;;;;;;;;;;;;20.56;41.02;102485.56;5073528;28;19920;-83
2022/04/27 12:51:28;;;;;;;;;;;;;;;20.56;41.11;102486.38;5073890;28;19916;-84
2022/04/27 12:53:54;;;;;;;;;;;;;;;20.57;40.81;102484.47;5072826;28;19977;-84
2022/04/27 12:56:20;;;;;;;;;;;;;;;20.55;41.01;102468.28;5072498;28;20324;-83
2022/04/27 12:59:01;;;;;;;;;;;;;;;20.56;40.69;102469.91;5072664;28;20062;-83